createdAt,value
2024-05-09T00:00:22.536Z,14.20
2024-05-09T00:02:57.619Z,14.27
2024-05-09T00:05:25.316Z,14.27
2024-05-09T00:07:53.038Z,14.26
2024-05-09T00:10:28.821Z,14.24
2024-05-09T00:13:03.188Z,14.25
2024-05-09T00:15:30.982Z,13.46
2024-05-09T00:17:58.939Z,13.30
2024-05-09T00:20:35.084Z,13.35
2024-05-09T00:23:07.252Z,12.78
2024-05-09T00:25:58.552Z,12.44
2024-05-09T00:28:59.535Z,12.38
2024-05-09T00:31:27.308Z,12.40
2024-05-09T00:33:55.359Z,12.45
2024-05-09T00:36:22.983Z,12.77
2024-05-09T00:38:50.585Z,13.02
2024-05-09T00:41:19.751Z,12.90
2024-05-09T00:44:07.583Z,13.09
2024-05-09T00:46:48.716Z,13.01
2024-05-09T00:49:16.568Z,12.78
2024-05-09T00:51:44.162Z,12.70
2024-05-09T00:54:11.675Z,12.76
2024-05-09T00:56:39.187Z,12.74
2024-05-09T00:59:06.686Z,12.67
2024-05-09T01:01:34.425Z,12.82
2024-05-09T01:04:02.124Z,12.80
2024-05-09T01:06:49.591Z,12.80
2024-05-09T01:09:38.699Z,12.74
2024-05-09T01:12:06.859Z,12.71
2024-05-09T01:14:37.035Z,12.61
2024-05-09T01:17:04.743Z,12.45
2024-05-09T01:19:32.830Z,12.43
2024-05-09T01:22:20.614Z,12.29
2024-05-09T01:25:01.674Z,12.34
2024-05-09T01:27:30.636Z,12.30
2024-05-09T01:29:58.116Z,12.34
2024-05-09T01:32:25.951Z,12.25
2024-05-09T01:34:53.571Z,12.20
2024-05-09T01:37:21.072Z,12.19
2024-05-09T01:39:48.629Z,12.12
2024-05-09T01:42:17.196Z,12.09
2024-05-09T01:44:45.085Z,12.12
2024-05-09T01:47:12.643Z,12.03
2024-05-09T01:49:40.280Z,12.08
2024-05-09T01:52:27.686Z,12.15
2024-05-09T01:55:28.633Z,12.05
2024-05-09T01:58:00.045Z,12.40
2024-05-09T02:00:36.167Z,12.49
2024-05-09T02:03:14.601Z,12.49
2024-05-09T02:05:45.610Z,12.31
2024-05-09T02:08:27.759Z,12.16
2024-05-09T02:11:28.705Z,11.82
2024-05-09T02:14:10.160Z,11.97
2024-05-09T02:16:37.890Z,11.84
2024-05-09T02:19:06.111Z,11.85
2024-05-09T02:21:34.490Z,11.90
2024-05-09T02:24:02.001Z,11.92
2024-05-09T02:26:29.593Z,11.57
2024-05-09T02:28:57.274Z,11.48
2024-05-09T02:31:24.865Z,11.44
2024-05-09T02:33:52.499Z,11.57
2024-05-09T02:36:20.335Z,11.47
2024-05-09T02:38:47.950Z,11.65
2024-05-09T02:41:15.520Z,11.54
2024-05-09T02:44:03.774Z,11.58
2024-05-09T02:47:04.739Z,11.56
2024-05-09T02:49:45.923Z,11.73
2024-05-09T02:52:17.561Z,11.82
2024-05-09T02:54:45.145Z,11.82
2024-05-09T02:57:12.767Z,12.02
2024-05-09T02:59:40.247Z,12.25
2024-05-09T03:02:07.790Z,12.50
2024-05-09T03:04:35.350Z,12.50
2024-05-09T03:07:06.235Z,11.96
2024-05-09T03:09:34.094Z,11.91
2024-05-09T03:12:01.736Z,11.94
2024-05-09T03:14:29.383Z,12.12
2024-05-09T03:16:56.957Z,12.43
2024-05-09T03:19:38.011Z,12.71
2024-05-09T03:22:05.588Z,12.99
2024-05-09T03:24:33.071Z,13.20
2024-05-09T03:27:00.640Z,13.34
2024-05-09T03:29:28.255Z,13.53
2024-05-09T03:31:55.973Z,13.79
2024-05-09T03:34:24.160Z,14.03
2024-05-09T03:36:51.747Z,14.27
2024-05-09T03:39:19.299Z,14.39
2024-05-09T03:41:46.836Z,14.60
2024-05-09T03:44:14.341Z,14.64
2024-05-09T03:46:41.790Z,14.87
2024-05-09T03:49:09.542Z,15.16
2024-05-09T03:51:37.121Z,15.35
2024-05-09T03:54:04.596Z,15.66
2024-05-09T03:56:32.198Z,15.99
2024-05-09T03:59:00.072Z,16.48
2024-05-09T04:01:29.982Z,16.84
2024-05-09T04:03:57.731Z,17.08
2024-05-09T04:06:25.770Z,17.35
2024-05-09T04:08:53.389Z,17.71
2024-05-09T04:11:21.054Z,17.58
2024-05-09T04:13:48.659Z,17.46
2024-05-09T04:16:16.283Z,17.49
2024-05-09T04:18:43.927Z,18.43
2024-05-09T04:21:11.590Z,17.89
2024-05-09T04:23:39.392Z,17.91
2024-05-09T04:26:08.532Z,17.93
2024-05-09T04:28:36.184Z,18.45
2024-05-09T04:31:03.959Z,18.61
2024-05-09T04:33:31.577Z,17.96
2024-05-09T04:35:59.142Z,18.10
2024-05-09T04:38:26.644Z,18.32
2024-05-09T04:40:54.191Z,19.08
2024-05-09T04:43:22.146Z,18.56
2024-05-09T04:45:50.020Z,17.64
2024-05-09T04:48:17.897Z,17.45
2024-05-09T04:50:45.714Z,17.60
2024-05-09T04:53:16.778Z,17.81
2024-05-09T04:55:44.767Z,18.58
2024-05-09T04:58:15.430Z,18.87
2024-05-09T05:00:44.474Z,18.36
2024-05-09T05:03:14.622Z,18.17
2024-05-09T05:05:45.036Z,18.50
2024-05-09T05:08:15.019Z,18.51
2024-05-09T05:10:43.298Z,18.47
2024-05-09T05:13:22.268Z,18.65
2024-05-09T05:15:53.134Z,18.99
2024-05-09T05:18:21.626Z,19.18
2024-05-09T05:20:49.364Z,20.01
2024-05-09T05:23:20.764Z,20.28
2024-05-09T05:25:55.289Z,20.53
2024-05-09T05:28:23.548Z,20.53
2024-05-09T05:30:51.630Z,20.52
2024-05-09T05:33:20.217Z,20.78
2024-05-09T05:35:48.227Z,20.92
2024-05-09T05:38:15.898Z,21.34
2024-05-09T05:40:43.609Z,21.71
2024-05-09T05:43:20.473Z,21.82
2024-05-09T05:45:48.043Z,22.04
2024-05-09T05:48:17.174Z,22.29
2024-05-09T05:50:45.368Z,22.40
2024-05-09T05:53:13.198Z,21.96
2024-05-09T05:55:41.006Z,21.49
2024-05-09T05:58:10.159Z,21.39
2024-05-09T06:00:39.889Z,21.63
2024-05-09T06:03:13.695Z,21.64
2024-05-09T06:05:46.709Z,21.31
2024-05-09T06:08:14.736Z,21.15
2024-05-09T06:10:42.636Z,21.16
2024-05-09T06:13:11.858Z,21.54
2024-05-09T06:15:40.295Z,22.10
2024-05-09T06:18:08.482Z,21.61
2024-05-09T06:20:38.178Z,21.46
2024-05-09T06:23:06.636Z,21.37
2024-05-09T06:25:35.573Z,21.41
2024-05-09T06:28:03.594Z,21.52
2024-05-09T06:30:38.662Z,21.69
2024-05-09T06:33:10.450Z,22.31
2024-05-09T06:35:39.812Z,22.40
2024-05-09T06:38:10.898Z,22.35
2024-05-09T06:40:41.096Z,21.86
2024-05-09T06:43:14.327Z,21.48
2024-05-09T06:45:42.459Z,21.44
2024-05-09T06:48:10.484Z,21.61
2024-05-09T06:50:39.904Z,21.76
2024-05-09T06:53:08.514Z,21.88
2024-05-09T06:55:36.640Z,22.05
2024-05-09T06:58:05.568Z,22.14
2024-05-09T07:00:38.893Z,22.55
2024-05-09T07:03:15.346Z,22.92
2024-05-09T07:05:45.844Z,22.88
2024-05-09T07:08:14.199Z,22.83
2024-05-09T07:10:41.858Z,22.67
2024-05-09T07:13:10.222Z,22.70
2024-05-09T07:15:38.039Z,22.81
2024-05-09T07:18:12.585Z,22.89
2024-05-09T07:20:40.898Z,23.18
2024-05-09T07:23:09.750Z,23.35
2024-05-09T07:25:37.621Z,23.37
2024-05-09T07:28:05.469Z,23.52
2024-05-09T07:30:34.622Z,23.50
2024-05-09T07:33:03.614Z,23.52
2024-05-09T07:35:31.631Z,23.56
2024-05-09T07:37:59.988Z,23.46
2024-05-09T07:40:35.091Z,23.51
2024-05-09T07:43:04.947Z,23.85
2024-05-09T07:52:23.648Z,24.20
2024-05-09T07:53:39.500Z,24.56
2024-05-09T07:56:11.698Z,24.52
2024-05-09T07:58:39.972Z,24.58
2024-05-09T08:01:07.501Z,24.46
2024-05-09T08:03:35.754Z,24.15
2024-05-09T08:06:03.673Z,24.35
2024-05-09T08:08:34.454Z,24.50
2024-05-09T08:11:03.561Z,24.42
2024-05-09T08:13:31.734Z,24.73
2024-05-09T08:15:59.370Z,25.15
2024-05-09T08:18:26.984Z,25.24
2024-05-09T08:21:15.357Z,25.37
2024-05-09T08:23:56.405Z,25.59
2024-05-09T08:26:23.907Z,25.93
2024-05-09T08:28:51.798Z,26.30
2024-05-09T08:31:19.447Z,26.50
2024-05-09T08:33:47.648Z,26.68
2024-05-09T08:36:16.189Z,26.85
2024-05-09T08:38:44.054Z,26.96
2024-05-09T08:41:13.448Z,26.90
2024-05-09T08:44:02.329Z,27.04
2024-05-09T08:47:04.415Z,27.09
2024-05-09T08:49:45.550Z,27.48
2024-05-09T08:52:13.258Z,27.62
2024-05-09T08:54:40.827Z,27.94
2024-05-09T08:57:08.342Z,28.01
2024-05-09T08:59:36.644Z,28.22
2024-05-09T09:02:05.269Z,28.65
2024-05-09T09:04:33.528Z,28.91
2024-05-09T09:07:21.445Z,28.95
2024-05-09T09:10:29.611Z,28.53
2024-05-09T09:13:32.389Z,28.61
2024-05-09T09:16:33.409Z,28.71
2024-05-09T09:19:16.495Z,28.52
2024-05-09T09:21:44.311Z,28.47
2024-05-09T09:24:32.462Z,28.24
2024-05-09T09:27:33.492Z,28.03
2024-05-09T09:30:37.556Z,28.01
2024-05-09T09:33:19.746Z,28.08
2024-05-09T09:35:47.469Z,28.10
2024-05-09T09:38:16.337Z,28.22
2024-05-09T09:41:05.882Z,28.46
2024-05-09T09:43:33.610Z,28.27
2024-05-09T09:46:02.102Z,27.67
2024-05-09T09:48:31.273Z,27.57
2024-05-09T09:50:58.839Z,27.37
2024-05-09T09:53:26.604Z,27.14
2024-05-09T09:55:55.805Z,27.02
2024-05-09T09:58:23.397Z,26.84
2024-05-09T10:00:50.999Z,26.71
2024-05-09T10:03:18.672Z,26.69
2024-05-09T10:05:47.476Z,26.58
2024-05-09T10:08:35.572Z,26.52
2024-05-09T10:11:21.029Z,26.21
2024-05-09T10:13:48.884Z,26.12
2024-05-09T10:16:20.203Z,25.92
2024-05-09T10:18:48.077Z,26.13
2024-05-09T10:21:35.729Z,25.77
2024-05-09T10:24:36.645Z,25.45
2024-05-09T10:27:30.267Z,25.50
2024-05-09T10:30:02.840Z,25.62
2024-05-09T10:32:37.855Z,25.71
2024-05-09T10:35:08.816Z,25.86
2024-05-09T10:37:36.463Z,26.01
2024-05-09T10:40:26.595Z,26.13
2024-05-09T10:43:11.788Z,26.22
2024-05-09T10:45:46.141Z,26.39
2024-05-09T10:48:13.792Z,26.50
2024-05-09T10:50:43.645Z,26.38
2024-05-09T10:53:11.202Z,26.19
2024-05-09T10:55:38.694Z,26.20
2024-05-09T10:58:16.958Z,26.28
2024-05-09T11:00:44.791Z,26.53
2024-05-09T11:03:12.540Z,26.66
2024-05-09T11:05:42.285Z,26.86
2024-05-09T11:08:10.716Z,26.85
2024-05-09T11:10:38.210Z,26.78
2024-05-09T11:13:06.088Z,26.78
2024-05-09T11:15:40.918Z,26.97
2024-05-09T11:18:08.738Z,27.18
2024-05-09T11:20:37.260Z,27.24
2024-05-09T11:23:06.082Z,27.32
2024-05-09T11:25:33.672Z,27.38
2024-05-09T11:28:01.385Z,27.63
2024-05-09T11:30:32.062Z,27.73
2024-05-09T11:33:00.450Z,27.61
2024-05-09T11:35:29.253Z,27.70
2024-05-09T11:38:16.704Z,27.73
2024-05-09T11:41:17.678Z,28.20
2024-05-09T11:43:58.772Z,28.68
2024-05-09T11:46:26.493Z,28.97
2024-05-09T11:48:54.282Z,28.84
2024-05-09T11:51:22.131Z,28.95
2024-05-09T11:53:49.676Z,29.30
2024-05-09T11:56:17.309Z,29.45
2024-05-09T11:58:44.900Z,29.51
2024-05-09T12:01:27.914Z,29.48
2024-05-09T12:04:28.804Z,29.17
2024-05-09T12:07:27.769Z,28.40
2024-05-09T12:09:55.409Z,28.01
2024-05-09T12:12:23.038Z,27.89
2024-05-09T12:14:50.582Z,27.75
2024-05-09T12:17:18.120Z,27.79
2024-05-09T12:19:45.865Z,27.79
2024-05-09T12:22:13.479Z,27.57
2024-05-09T12:24:41.076Z,27.25
2024-05-09T12:27:08.560Z,27.31
2024-05-09T12:29:38.905Z,27.42
2024-05-09T12:32:06.976Z,27.68
2024-05-09T12:34:34.582Z,27.77
2024-05-09T12:37:02.384Z,27.93
2024-05-09T12:39:30.042Z,27.94
2024-05-09T12:41:57.693Z,27.97
2024-05-09T12:44:25.194Z,27.80
2024-05-09T12:46:52.924Z,27.62
2024-05-09T12:49:21.618Z,27.77
2024-05-09T12:51:49.762Z,27.94
2024-05-09T12:54:17.392Z,28.00
2024-05-09T12:56:45.015Z,28.12
2024-05-09T12:59:12.520Z,28.13
2024-05-09T13:01:40.126Z,28.38
2024-05-09T13:04:07.925Z,28.95
2024-05-09T13:06:35.613Z,29.27
2024-05-09T13:09:03.239Z,29.62
2024-05-09T13:11:30.763Z,30.15
2024-05-09T13:13:58.288Z,30.56
2024-05-09T13:16:25.972Z,30.78
2024-05-09T13:18:53.655Z,30.86
2024-05-09T13:21:21.148Z,30.60
2024-05-09T13:23:48.758Z,30.42
2024-05-09T13:26:16.570Z,30.55
2024-05-09T13:28:44.045Z,30.70
2024-05-09T13:31:11.668Z,30.82
2024-05-09T13:33:39.328Z,31.07
2024-05-09T13:36:07.631Z,31.47
2024-05-09T13:38:35.354Z,31.70
2024-05-09T13:41:02.913Z,31.88
2024-05-09T13:43:30.594Z,32.28
2024-05-09T13:45:58.373Z,32.61
2024-05-09T13:48:26.031Z,32.56
2024-05-09T13:50:53.524Z,32.54
2024-05-09T13:53:21.104Z,32.28
2024-05-09T13:55:48.684Z,31.96
2024-05-09T13:58:16.483Z,32.64
2024-05-09T14:00:49.188Z,32.77
2024-05-09T14:03:22.383Z,32.91
2024-05-09T14:05:51.356Z,32.94
2024-05-09T14:08:21.836Z,32.84
2024-05-09T14:10:50.094Z,32.60
2024-05-09T14:13:18.215Z,31.96
2024-05-09T14:15:46.579Z,32.02
2024-05-09T14:18:14.726Z,32.00
2024-05-09T14:20:42.964Z,32.47
2024-05-09T14:23:10.762Z,32.53
2024-05-09T14:25:42.182Z,32.28
2024-05-09T14:28:12.544Z,32.23
2024-05-09T14:30:41.609Z,31.93
2024-05-09T14:33:09.790Z,31.38
2024-05-09T14:35:38.651Z,30.67
2024-05-09T14:38:07.427Z,30.09
2024-05-09T14:40:41.319Z,29.68
2024-05-09T14:43:11.831Z,29.48
2024-05-09T14:45:39.858Z,29.17
2024-05-09T14:48:08.030Z,28.69
2024-05-09T14:50:38.946Z,28.21
2024-05-09T14:53:12.052Z,27.81
2024-05-09T14:55:41.727Z,27.53
2024-05-09T14:58:10.923Z,27.21
2024-05-09T15:00:46.664Z,27.18
2024-05-09T15:03:19.365Z,26.93
2024-05-09T15:05:47.409Z,26.96
2024-05-09T15:08:16.193Z,27.02
2024-05-09T15:10:43.831Z,26.91
2024-05-09T15:13:13.423Z,26.76
2024-05-09T15:15:43.380Z,26.57
2024-05-09T15:18:11.463Z,26.46
2024-05-09T15:23:07.699Z,26.26
2024-05-09T15:25:36.399Z,26.02
2024-05-09T15:28:07.161Z,25.90
2024-05-09T15:30:35.235Z,26.00
2024-05-09T15:33:06.841Z,25.95
2024-05-09T15:35:35.934Z,25.94
2024-05-09T15:38:04.389Z,25.80
2024-05-09T15:40:39.036Z,25.82
2024-05-09T15:43:09.547Z,25.73
2024-05-09T15:45:40.093Z,25.61
2024-05-09T15:48:09.052Z,25.38
2024-05-09T15:50:40.789Z,25.35
2024-05-09T15:53:11.147Z,25.52
2024-05-09T15:55:39.592Z,25.42
2024-05-09T15:58:07.660Z,25.38
2024-05-09T16:00:39.827Z,25.38
2024-05-09T16:03:11.087Z,24.91
2024-05-09T16:05:40.666Z,24.42
2024-05-09T16:08:08.390Z,24.65
2024-05-09T16:10:39.243Z,24.92
2024-05-09T16:13:07.627Z,24.51
2024-05-09T16:15:35.179Z,24.41
2024-05-09T16:18:02.819Z,24.32
2024-05-09T16:20:38.813Z,24.68
2024-05-09T16:23:09.843Z,24.70
2024-05-09T16:25:43.017Z,24.78
2024-05-09T16:28:11.059Z,25.01
2024-05-09T16:30:39.849Z,24.91
2024-05-09T16:33:08.754Z,24.41
2024-05-09T16:35:40.593Z,24.12
2024-05-09T16:38:08.125Z,23.94
2024-05-09T16:40:39.726Z,24.29
2024-05-09T16:43:12.513Z,24.18
2024-05-09T16:45:41.285Z,23.75
2024-05-09T16:48:09.139Z,24.25
2024-05-09T16:50:37.084Z,23.78
2024-05-09T16:53:05.892Z,23.53
2024-05-09T16:55:35.035Z,23.32
2024-05-09T16:58:03.230Z,23.23
2024-05-09T17:00:39.422Z,22.71
2024-05-09T17:03:15.169Z,22.91
2024-05-09T17:05:46.762Z,22.90
2024-05-09T17:08:16.347Z,22.85
2024-05-09T17:10:45.069Z,22.45
2024-05-09T17:13:12.750Z,22.11
2024-05-09T17:15:40.776Z,21.83
2024-05-09T17:18:09.615Z,22.16
2024-05-09T17:20:37.821Z,22.62
2024-05-09T17:23:12.857Z,22.40
2024-05-09T17:25:41.198Z,22.41
2024-05-09T17:28:09.206Z,22.23
2024-05-09T17:30:38.763Z,22.42
2024-05-09T17:33:09.331Z,22.64
2024-05-09T17:35:38.121Z,22.65
2024-05-09T17:38:06.178Z,22.65
2024-05-09T17:40:36.595Z,22.46
2024-05-09T17:43:08.203Z,21.92
2024-05-09T17:45:38.331Z,21.98
2024-05-09T17:48:06.581Z,21.99
2024-05-09T17:50:36.658Z,21.78
2024-05-09T17:53:06.043Z,21.49
2024-05-09T17:55:35.359Z,21.23
2024-05-09T17:58:06.498Z,21.26
2024-05-09T18:00:39.237Z,21.34
2024-05-09T18:03:13.483Z,21.02
2024-05-09T18:05:42.904Z,20.35
2024-05-09T18:08:12.096Z,20.47
2024-05-09T18:10:43.039Z,20.13
2024-05-09T18:13:11.893Z,20.21
2024-05-09T18:15:40.260Z,20.26
2024-05-09T18:18:08.924Z,20.24
2024-05-09T18:20:42.632Z,20.12
2024-05-09T18:23:17.778Z,19.92
2024-05-09T18:25:47.131Z,19.61
2024-05-09T18:28:16.134Z,19.55
2024-05-09T18:30:44.096Z,19.39
2024-05-09T18:33:12.188Z,19.18
2024-05-09T18:35:43.893Z,19.09
2024-05-09T18:38:11.555Z,18.76
2024-05-09T18:40:40.898Z,18.73
2024-05-09T18:43:10.228Z,18.57
2024-05-09T18:45:38.429Z,18.69
2024-05-09T18:48:08.157Z,18.58
2024-05-09T18:50:39.453Z,18.44
2024-05-09T18:53:09.922Z,18.08
2024-05-09T18:55:37.730Z,18.18
2024-05-09T18:58:05.380Z,18.21
2024-05-09T19:00:36.964Z,18.22
2024-05-09T19:03:09.253Z,17.88
2024-05-09T19:05:39.408Z,17.60
2024-05-09T19:08:07.954Z,17.40
2024-05-09T19:10:36.976Z,17.63
2024-05-09T19:13:09.178Z,17.91
2024-05-09T19:15:40.474Z,17.88
2024-05-09T19:18:09.296Z,17.66
2024-05-09T19:20:37.641Z,17.64
2024-05-09T19:23:06.450Z,17.59
2024-05-09T19:25:35.234Z,17.49
2024-05-09T19:28:03.830Z,17.46
2024-05-09T19:30:38.645Z,17.63
2024-05-09T19:33:11.405Z,17.39
2024-05-09T19:35:40.231Z,17.28
2024-05-09T19:38:07.613Z,17.08
2024-05-09T19:40:35.786Z,17.04
2024-05-09T19:43:04.738Z,16.75
2024-05-09T19:45:34.828Z,16.79
2024-05-09T19:48:04.090Z,16.74
2024-05-09T19:50:39.877Z,16.64
2024-05-09T19:53:12.213Z,16.25
2024-05-09T19:55:40.683Z,16.19
2024-05-09T19:58:08.962Z,16.30
2024-05-09T20:00:39.545Z,16.18
2024-05-09T20:03:10.734Z,16.23
2024-05-09T20:05:39.046Z,16.18
2024-05-09T20:08:07.655Z,16.13
2024-05-09T20:10:36.503Z,16.15
2024-05-09T20:13:06.417Z,16.19
2024-05-09T20:15:36.102Z,16.04
2024-05-09T20:18:04.319Z,16.01
2024-05-09T20:20:37.808Z,16.00
2024-05-09T20:23:10.103Z,15.42
2024-05-09T20:25:37.838Z,15.25
2024-05-09T20:28:06.270Z,15.21
2024-05-09T20:30:34.795Z,15.77
2024-05-09T20:33:04.550Z,16.02
2024-05-09T20:35:33.526Z,15.81
2024-05-09T20:38:01.778Z,15.57
2024-05-09T20:40:34.263Z,15.42
2024-05-09T20:43:06.247Z,14.88
2024-05-09T20:45:34.680Z,14.74
2024-05-09T20:48:02.663Z,14.55
2024-05-09T20:50:37.496Z,14.37
2024-05-09T20:53:09.103Z,14.48
2024-05-09T20:55:36.909Z,14.37
2024-05-09T20:58:04.882Z,14.48
2024-05-09T21:00:40.156Z,14.45
2024-05-09T21:03:12.569Z,14.27
2024-05-09T21:05:41.257Z,14.25
2024-05-09T21:08:09.250Z,14.22
2024-05-09T21:10:37.609Z,14.06
2024-05-09T21:13:06.687Z,14.11
2024-05-09T21:15:35.625Z,14.15
2024-05-09T21:18:04.424Z,14.09
2024-05-09T21:20:34.430Z,14.09
2024-05-09T21:23:02.775Z,13.99
2024-05-09T21:25:30.812Z,14.02
2024-05-09T21:27:58.618Z,14.03
2024-05-09T21:30:33.161Z,14.11
2024-05-09T21:33:09.936Z,14.14
2024-05-09T21:35:39.089Z,14.29
2024-05-09T21:38:07.717Z,14.38
2024-05-09T21:40:36.900Z,14.19
2024-05-09T21:43:06.437Z,14.18
2024-05-09T21:45:34.526Z,14.18
2024-05-09T21:48:06.177Z,14.09
2024-05-09T21:50:39.882Z,14.18
2024-05-09T21:53:11.211Z,13.93
2024-05-09T21:55:39.022Z,14.10
2024-05-09T21:58:06.650Z,13.98
2024-05-09T22:00:38.019Z,14.00
2024-05-09T22:03:07.092Z,13.90
2024-05-09T22:05:35.551Z,13.84
2024-05-09T22:08:03.567Z,13.84
2024-05-09T22:10:34.656Z,13.78
2024-05-09T22:13:08.331Z,13.79
2024-05-09T22:15:37.646Z,13.75
2024-05-09T22:18:07.308Z,13.73
2024-05-09T22:20:38.470Z,13.73
2024-05-09T22:23:08.337Z,13.70
2024-05-09T22:25:38.379Z,13.66
2024-05-09T22:28:06.409Z,13.63
2024-05-09T22:30:37.979Z,13.50
2024-05-09T22:33:08.485Z,13.21
2024-05-09T22:35:37.075Z,13.34
2024-05-09T22:38:04.730Z,13.24
2024-05-09T22:40:41.985Z,13.35
2024-05-09T22:43:25.311Z,13.52
2024-05-09T22:45:54.949Z,13.48
2024-05-09T22:48:24.602Z,13.52
2024-05-09T22:50:53.274Z,13.38
2024-05-09T22:53:24.931Z,13.31
2024-05-09T22:55:52.651Z,13.20
2024-05-09T22:58:20.799Z,13.08
2024-05-09T23:00:48.698Z,13.06
2024-05-09T23:03:16.575Z,13.04
2024-05-09T23:05:44.342Z,12.96
2024-05-09T23:08:11.830Z,12.96
2024-05-09T23:10:39.395Z,13.08
2024-05-09T23:13:07.792Z,13.08
2024-05-09T23:15:36.514Z,13.15
2024-05-09T23:18:04.414Z,13.12
2024-05-09T23:20:37.480Z,13.09
2024-05-09T23:23:08.029Z,12.98
2024-05-09T23:25:36.607Z,12.90
2024-05-09T23:28:04.595Z,12.93
2024-05-09T23:30:37.871Z,12.89
2024-05-09T23:33:09.829Z,12.88
2024-05-09T23:35:38.464Z,12.51
2024-05-09T23:38:05.966Z,12.31
2024-05-09T23:40:39.135Z,12.27
2024-05-09T23:43:10.014Z,12.21
2024-05-09T23:45:38.060Z,12.34
2024-05-09T23:48:06.063Z,12.24
2024-05-09T23:50:36.799Z,12.13
2024-05-09T23:53:07.650Z,12.11
2024-05-09T23:55:36.586Z,12.17
2024-05-09T23:58:04.380Z,12.02
